createdAt,value
2022-08-05T00:01:35.894Z,8.20
2022-08-05T00:04:08.208Z,10.00
2022-08-05T00:06:36.649Z,8.70
2022-08-05T00:09:12.774Z,7.90
2022-08-05T00:11:49.375Z,7.50
2022-08-05T00:14:27.689Z,10.20
2022-08-05T00:16:58.030Z,7.20
2022-08-05T00:19:33.134Z,6.40
2022-08-05T00:22:11.306Z,6.80
2022-08-05T00:24:42.256Z,6.20
2022-08-05T00:27:16.500Z,6.50
2022-08-05T00:29:45.390Z,8.90
2022-08-05T00:32:15.490Z,6.60
2022-08-05T00:35:04.095Z,9.00
2022-08-05T00:37:53.086Z,6.30
2022-08-05T00:40:26.801Z,9.90
2022-08-05T00:42:59.170Z,8.30
2022-08-05T00:45:38.467Z,7.50
2022-08-05T00:48:31.420Z,12.20
2022-08-05T00:50:59.897Z,5.90
2022-08-05T00:54:00.396Z,7.40
2022-08-05T00:56:25.309Z,8.80
2022-08-05T00:58:53.656Z,9.40
2022-08-05T01:01:42.165Z,6.70
2022-08-05T01:04:14.126Z,7.90
2022-08-05T01:06:48.451Z,7.00
2022-08-05T01:09:17.416Z,12.40
2022-08-05T01:11:56.031Z,9.20
2022-08-05T01:14:33.520Z,7.50
2022-08-05T01:17:05.362Z,6.90
2022-08-05T01:20:01.440Z,8.70
2022-08-05T01:22:47.020Z,8.50
2022-08-05T01:25:40.106Z,10.30
2022-08-05T01:28:19.181Z,8.30
2022-08-05T01:31:10.600Z,10.30
2022-08-05T01:33:53.602Z,11.10
2022-08-05T01:36:28.265Z,8.40
2022-08-05T01:39:01.032Z,10.20
2022-08-05T01:41:33.783Z,8.90
2022-08-05T01:44:03.108Z,9.30
2022-08-05T01:46:42.579Z,8.40
2022-08-05T01:49:22.827Z,10.60
2022-08-05T01:51:59.041Z,8.60
2022-08-05T01:54:45.728Z,10.30
2022-08-05T01:58:13.082Z,9.80
2022-08-05T02:00:12.879Z,9.10
2022-08-05T02:02:54.283Z,8.90
2022-08-05T02:05:30.523Z,8.00
2022-08-05T02:08:03.473Z,9.50
2022-08-05T02:10:40.156Z,6.10
2022-08-05T02:13:19.137Z,10.50
2022-08-05T02:16:06.298Z,8.00
2022-08-05T02:19:00.178Z,10.90
2022-08-05T02:21:43.103Z,9.60
2022-08-05T02:24:23.153Z,8.40
2022-08-05T02:26:56.426Z,8.70
2022-08-05T02:29:59.496Z,10.40
2022-08-05T02:32:23.759Z,9.30
2022-08-05T02:35:09.694Z,8.60
2022-08-05T02:37:47.617Z,12.70
2022-08-05T02:40:24.467Z,9.30
2022-08-05T02:42:55.832Z,10.70
2022-08-05T02:45:26.532Z,8.50
2022-08-05T02:48:06.984Z,9.50
2022-08-05T02:50:47.190Z,9.60
2022-08-05T02:53:19.633Z,7.70
2022-08-05T02:55:59.650Z,9.90
2022-08-05T02:58:30.253Z,7.70
2022-08-05T03:01:02.576Z,8.30
2022-08-05T03:03:34.110Z,13.60
2022-08-05T03:06:55.961Z,9.50
2022-08-05T03:09:15.766Z,8.80
2022-08-05T03:11:54.641Z,10.90
2022-08-05T03:14:26.259Z,11.90
2022-08-05T03:16:54.639Z,11.20
2022-08-05T03:19:34.212Z,12.90
2022-08-05T03:22:04.994Z,14.10
2022-08-05T03:24:33.787Z,9.70
2022-08-05T03:27:03.823Z,10.80
2022-08-05T03:29:45.520Z,8.10
2022-08-05T03:32:31.022Z,8.30
2022-08-05T03:37:31.440Z,8.90
2022-08-05T03:40:15.505Z,9.90
2022-08-05T03:42:53.597Z,11.50
2022-08-05T03:45:23.706Z,8.50
2022-08-05T03:47:56.856Z,9.80
2022-08-05T03:50:45.500Z,11.20
2022-08-05T03:55:51.935Z,11.30
2022-08-05T03:56:50.264Z,9.80
2022-08-05T03:59:46.919Z,9.20
2022-08-05T04:02:38.628Z,10.10
2022-08-05T04:05:10.076Z,10.30
2022-08-05T04:07:53.167Z,10.50
2022-08-05T04:10:32.152Z,10.00
2022-08-05T04:13:08.046Z,11.20
2022-08-05T04:15:37.239Z,11.10
2022-08-05T04:18:09.439Z,9.60
2022-08-05T04:20:38.599Z,10.10
2022-08-05T04:23:12.635Z,16.60
2022-08-05T04:25:57.759Z,12.20
2022-08-05T04:28:30.808Z,17.30
2022-08-05T04:31:01.520Z,13.20
2022-08-05T04:33:54.759Z,11.30
2022-08-05T04:36:44.824Z,14.40
2022-08-05T04:39:07.373Z,18.90
2022-08-05T04:41:37.715Z,13.80
2022-08-05T04:44:09.275Z,14.20
2022-08-05T04:46:38.983Z,17.80
2022-08-05T04:49:12.186Z,14.80
2022-08-05T04:51:44.343Z,14.90
2022-08-05T04:54:14.815Z,12.20
2022-08-05T04:56:43.627Z,15.20
2022-08-05T04:59:22.042Z,10.60
2022-08-05T05:02:07.946Z,13.70
2022-08-05T05:04:44.159Z,12.50
2022-08-05T05:07:18.447Z,8.50
2022-08-05T05:09:52.353Z,9.50
2022-08-05T05:12:22.320Z,7.90
2022-08-05T05:14:51.326Z,11.40
2022-08-05T05:17:23.807Z,11.20
2022-08-05T05:19:56.481Z,11.30
2022-08-05T05:22:26.794Z,12.30
2022-08-05T05:24:56.973Z,14.80
2022-08-05T05:27:45.767Z,10.60
2022-08-05T05:30:29.736Z,6.10
2022-08-05T05:33:16.227Z,6.70
2022-08-05T05:35:47.079Z,9.20
2022-08-05T05:38:22.925Z,12.80
2022-08-05T05:40:57.082Z,7.50
2022-08-05T05:43:54.484Z,12.40
2022-08-05T05:46:17.461Z,11.30
2022-08-05T05:48:48.678Z,7.70
2022-08-05T05:51:24.471Z,7.90
2022-08-05T05:53:58.898Z,5.80
2022-08-05T05:56:32.765Z,8.60
2022-08-05T05:59:07.647Z,7.70
2022-08-05T06:01:39.407Z,8.30
2022-08-05T06:04:11.554Z,8.40
2022-08-05T06:06:42.995Z,9.60
2022-08-05T06:09:18.203Z,10.90
2022-08-05T06:12:02.736Z,7.80
2022-08-05T06:14:32.130Z,8.80
2022-08-05T06:17:22.253Z,10.40
2022-08-05T06:19:56.756Z,8.60
2022-08-05T06:22:33.678Z,10.30
2022-08-05T06:25:24.509Z,9.60
2022-08-05T06:28:11.814Z,9.00
2022-08-05T06:30:41.347Z,9.10
2022-08-05T06:33:10.775Z,6.90
2022-08-05T06:36:07.469Z,8.40
2022-08-05T06:38:35.781Z,8.00
2022-08-05T06:41:07.764Z,10.50
2022-08-05T06:43:58.027Z,9.10
2022-08-05T06:46:30.032Z,12.20
2022-08-05T06:49:01.284Z,8.60
2022-08-05T06:51:31.303Z,9.30
2022-08-05T06:54:01.775Z,8.30
2022-08-05T06:56:34.354Z,7.10
2022-08-05T06:59:08.328Z,8.80
2022-08-05T07:01:41.503Z,12.40
2022-08-05T07:04:11.172Z,7.50
2022-08-05T07:06:42.348Z,7.60
2022-08-05T07:09:10.491Z,9.40
2022-08-05T07:11:39.869Z,9.40
2022-08-05T07:14:30.052Z,8.00
2022-08-05T07:17:58.404Z,8.50
2022-08-05T07:22:42.489Z,9.60
2022-08-05T07:25:55.120Z,8.30
2022-08-05T07:28:05.735Z,7.30
2022-08-05T07:30:39.015Z,8.40
2022-08-05T07:33:16.607Z,10.80
2022-08-05T07:36:04.910Z,5.50
2022-08-05T07:38:43.663Z,5.70
2022-08-05T07:42:13.205Z,10.90
2022-08-05T07:44:14.323Z,7.20
2022-08-05T07:46:50.130Z,4.60
2022-08-05T07:49:20.086Z,5.30
2022-08-05T07:51:53.662Z,9.20
2022-08-05T07:54:31.511Z,6.50
2022-08-05T07:57:22.718Z,5.10
2022-08-05T07:59:53.660Z,5.50
2022-08-05T08:02:30.938Z,10.70
2022-08-05T08:05:16.616Z,5.90
2022-08-05T08:07:59.686Z,7.50
2022-08-05T08:10:30.135Z,6.80
2022-08-05T08:12:58.892Z,8.70
2022-08-05T08:16:33.619Z,6.50
2022-08-05T08:18:15.371Z,4.30
2022-08-05T08:21:02.431Z,6.40
2022-08-05T08:24:01.282Z,7.10
2022-08-05T08:26:29.718Z,7.10
2022-08-05T08:29:09.755Z,6.70
2022-08-05T08:31:50.386Z,4.70
2022-08-05T08:34:30.305Z,5.30
2022-08-05T08:37:04.670Z,5.80
2022-08-05T08:39:37.763Z,5.70
2022-08-05T08:42:34.553Z,5.90
2022-08-05T08:45:23.752Z,10.60
2022-08-05T08:48:06.746Z,6.80
2022-08-05T08:51:07.449Z,5.90
2022-08-05T08:53:37.423Z,6.30
2022-08-05T08:56:06.602Z,6.80
2022-08-05T08:58:43.875Z,4.80
2022-08-05T09:01:18.388Z,5.40
2022-08-05T09:03:55.071Z,5.40
2022-08-05T09:06:29.853Z,4.60
2022-08-05T09:09:01.526Z,5.00
2022-08-05T09:11:53.341Z,5.20
2022-08-05T09:14:59.129Z,3.90
2022-08-05T09:17:43.040Z,6.30
2022-08-05T09:20:05.861Z,9.90
2022-08-05T09:23:09.177Z,5.20
2022-08-05T09:25:59.946Z,6.80
2022-08-05T09:28:33.825Z,6.00
2022-08-05T09:31:43.300Z,5.90
2022-08-05T09:33:59.818Z,10.90
2022-08-05T09:36:54.849Z,6.20
2022-08-05T09:39:39.238Z,7.30
2022-08-05T09:42:24.335Z,7.60
2022-08-05T09:45:17.642Z,6.70
2022-08-05T09:47:55.111Z,8.00
2022-08-05T09:50:44.592Z,6.30
2022-08-05T09:53:22.910Z,5.20
2022-08-05T09:56:03.764Z,6.10
2022-08-05T09:58:33.394Z,6.50
2022-08-05T10:01:14.844Z,5.40
2022-08-05T10:04:19.315Z,8.40
2022-08-05T10:06:58.822Z,5.10
2022-08-05T10:09:29.884Z,6.40
2022-08-05T10:12:30.547Z,7.10
2022-08-05T10:15:25.937Z,6.30
2022-08-05T10:18:09.343Z,4.20
2022-08-05T10:20:42.010Z,5.80
2022-08-05T10:23:34.776Z,6.40
2022-08-05T10:26:04.481Z,5.90
2022-08-05T10:28:36.760Z,5.20
2022-08-05T10:32:49.069Z,5.80
2022-08-05T10:33:54.454Z,5.90
2022-08-05T10:36:25.918Z,5.70
2022-08-05T10:39:10.033Z,7.90
2022-08-05T10:42:05.617Z,6.50
2022-08-05T10:44:35.231Z,5.40
2022-08-05T10:47:25.909Z,4.80
2022-08-05T10:50:32.526Z,5.00
2022-08-05T10:55:38.434Z,5.40
2022-08-05T10:58:20.722Z,3.60
2022-08-05T11:00:55.245Z,7.10
2022-08-05T11:03:31.425Z,4.40
2022-08-05T11:06:15.108Z,11.80
2022-08-05T11:09:24.234Z,5.20
2022-08-05T11:12:45.351Z,8.60
2022-08-05T11:16:00.303Z,4.70
2022-08-05T11:18:34.501Z,5.10
2022-08-05T11:21:06.395Z,4.50
2022-08-05T11:24:05.470Z,6.00
2022-08-05T11:26:40.353Z,4.40
2022-08-05T11:29:35.325Z,5.60
2022-08-05T11:32:29.345Z,4.00
2022-08-05T11:34:58.040Z,5.00
2022-08-05T11:38:36.951Z,3.00
2022-08-05T11:41:34.330Z,3.30
2022-08-05T11:44:12.814Z,4.50
2022-08-05T11:47:14.086Z,3.90
2022-08-05T11:49:49.775Z,4.10
2022-08-05T11:52:31.061Z,4.30
2022-08-05T11:55:07.502Z,3.00
2022-08-05T11:58:08.121Z,4.50
2022-08-05T12:00:31.861Z,3.70
2022-08-05T12:03:29.086Z,4.20
2022-08-05T12:06:06.616Z,3.90
2022-08-05T12:08:49.949Z,6.50
2022-08-05T12:11:24.664Z,5.50
2022-08-05T12:14:04.229Z,3.60
2022-08-05T12:16:35.063Z,4.80
2022-08-05T12:19:08.914Z,4.40
2022-08-05T12:21:48.182Z,4.10
2022-08-05T12:24:19.634Z,3.00
2022-08-05T12:26:50.305Z,3.50
2022-08-05T12:29:23.878Z,6.30
2022-08-05T12:32:02.175Z,3.80
2022-08-05T12:34:37.202Z,3.40
2022-08-05T12:37:17.534Z,3.80
2022-08-05T12:39:51.953Z,3.90
2022-08-05T12:42:25.341Z,3.20
2022-08-05T12:45:03.599Z,2.40
2022-08-05T12:47:38.571Z,3.50
2022-08-05T12:50:26.675Z,4.80
2022-08-05T12:53:00.182Z,3.00
2022-08-05T12:55:32.614Z,3.60
2022-08-05T12:58:49.311Z,2.80
2022-08-05T13:02:02.673Z,4.30
2022-08-05T13:03:41.941Z,3.60
2022-08-05T13:06:18.234Z,4.60
2022-08-05T13:08:51.805Z,4.00
2022-08-05T13:11:59.725Z,3.80
2022-08-05T13:14:35.773Z,4.50
2022-08-05T13:17:10.523Z,2.50
2022-08-05T13:19:51.900Z,3.10
2022-08-05T13:22:28.058Z,4.30
2022-08-05T13:25:05.452Z,5.30
2022-08-05T13:27:40.221Z,2.90
2022-08-05T13:30:33.560Z,9.80
2022-08-05T13:33:01.262Z,9.00
2022-08-05T13:35:43.191Z,4.20
2022-08-05T13:38:31.057Z,4.10
2022-08-05T13:41:04.558Z,3.50
2022-08-05T13:43:45.825Z,4.50
2022-08-05T13:46:43.987Z,6.80
2022-08-05T13:49:12.871Z,4.40
2022-08-05T13:51:45.850Z,3.50
2022-08-05T13:54:17.117Z,3.10
2022-08-05T13:56:50.916Z,3.70
2022-08-05T13:59:24.392Z,3.20
2022-08-05T14:02:00.317Z,2.90
2022-08-05T14:04:51.107Z,3.20
2022-08-05T14:07:59.742Z,3.10
2022-08-05T14:10:28.889Z,4.50
2022-08-05T14:13:00.118Z,2.70
2022-08-05T14:16:07.267Z,3.80
2022-08-05T14:18:23.435Z,4.80
2022-08-05T14:20:54.903Z,3.60
2022-08-05T14:23:25.583Z,2.30
2022-08-05T14:25:58.169Z,3.20
2022-08-05T14:28:29.193Z,2.90
2022-08-05T14:30:59.160Z,2.50
2022-08-05T14:33:27.286Z,6.00
2022-08-05T14:36:02.133Z,2.30
2022-08-05T14:38:34.033Z,4.30
2022-08-05T14:41:07.515Z,4.30
2022-08-05T14:43:59.540Z,2.60
2022-08-05T14:46:29.759Z,3.80
2022-08-05T14:49:06.949Z,2.90
2022-08-05T14:51:38.470Z,4.70
2022-08-05T14:54:28.479Z,4.40
2022-08-05T14:56:58.989Z,5.40
2022-08-05T14:59:29.803Z,4.50
2022-08-05T15:02:14.828Z,3.70
2022-08-05T15:04:47.655Z,6.20
2022-08-05T15:08:09.183Z,3.60
2022-08-05T15:10:05.838Z,4.80
2022-08-05T15:12:58.028Z,2.40
2022-08-05T15:15:55.553Z,6.10
2022-08-05T15:18:17.295Z,2.80
2022-08-05T15:20:46.263Z,3.80
2022-08-05T15:23:15.863Z,3.90
2022-08-05T15:25:51.916Z,4.50
2022-08-05T15:28:27.741Z,6.30
2022-08-05T15:30:57.385Z,3.40
2022-08-05T15:34:04.678Z,4.40
2022-08-05T15:36:17.205Z,4.10
2022-08-05T15:40:41.721Z,3.50
2022-08-05T15:41:58.564Z,3.40
2022-08-05T15:44:30.416Z,3.70
2022-08-05T15:47:01.957Z,2.60
2022-08-05T15:49:48.203Z,4.20
2022-08-05T15:52:51.851Z,4.80
2022-08-05T15:55:15.739Z,4.80
2022-08-05T15:57:48.974Z,9.30
2022-08-05T16:00:26.159Z,4.60
2022-08-05T16:03:03.640Z,3.30
2022-08-05T16:05:32.026Z,5.50
2022-08-05T16:08:00.320Z,3.00
2022-08-05T16:10:29.515Z,5.10
2022-08-05T16:12:59.308Z,4.80
2022-08-05T16:15:32.510Z,4.30
2022-08-05T16:18:04.047Z,4.60
2022-08-05T16:20:32.950Z,3.60
2022-08-05T16:23:03.741Z,5.40
2022-08-05T16:25:33.964Z,9.30
2022-08-05T16:28:09.666Z,3.90
2022-08-05T16:30:38.848Z,4.70
2022-08-05T16:33:06.868Z,5.30
2022-08-05T16:35:41.978Z,5.50
2022-08-05T16:38:23.877Z,6.20
2022-08-05T16:41:00.421Z,13.30
2022-08-05T16:43:34.739Z,5.50
2022-08-05T16:46:12.670Z,8.20
2022-08-05T16:48:52.187Z,3.70
2022-08-05T16:51:20.876Z,3.70
2022-08-05T16:54:06.050Z,6.80
2022-08-05T16:56:41.674Z,6.40
2022-08-05T16:59:10.648Z,5.40
2022-08-05T17:01:52.934Z,7.20
2022-08-05T17:04:26.056Z,4.60
2022-08-05T17:07:03.133Z,7.40
2022-08-05T17:09:55.964Z,5.40
2022-08-05T17:12:22.606Z,4.80
2022-08-05T17:15:09.309Z,6.60
2022-08-05T17:17:42.135Z,9.30
2022-08-05T17:20:14.651Z,9.60
2022-08-05T17:22:43.102Z,9.50
2022-08-05T17:25:34.074Z,8.40
2022-08-05T17:28:01.512Z,7.20
2022-08-05T17:30:29.639Z,7.00
2022-08-05T17:32:57.812Z,8.90
2022-08-05T17:35:25.986Z,8.20
2022-08-05T17:38:04.835Z,6.00
2022-08-05T17:40:33.291Z,5.50
2022-08-05T17:43:02.182Z,6.10
2022-08-05T17:45:38.318Z,5.20
2022-08-05T17:48:08.288Z,9.00
2022-08-05T17:50:36.740Z,8.10
2022-08-05T17:53:08.666Z,6.30
2022-08-05T17:55:39.564Z,10.10
2022-08-05T17:58:12.523Z,7.50
2022-08-05T18:00:50.813Z,6.10
2022-08-05T18:03:48.481Z,6.80
2022-08-05T18:06:12.341Z,7.00
2022-08-05T18:08:52.206Z,8.50
2022-08-05T18:11:23.795Z,5.70
2022-08-05T18:13:54.738Z,7.40
2022-08-05T18:16:23.818Z,4.50
2022-08-05T18:18:52.036Z,10.10
2022-08-05T18:21:22.898Z,6.40
2022-08-05T18:23:54.597Z,6.40
2022-08-05T18:26:27.645Z,8.60
2022-08-05T18:28:58.512Z,11.10
2022-08-05T18:31:35.196Z,11.00
2022-08-05T18:34:06.190Z,9.80
2022-08-05T18:36:41.317Z,6.80
2022-08-05T18:39:42.539Z,5.50
2022-08-05T18:42:06.202Z,9.90
2022-08-05T18:44:49.354Z,8.00
2022-08-05T18:47:26.394Z,6.90
2022-08-05T18:50:15.727Z,8.40
2022-08-05T18:52:51.451Z,6.00
2022-08-05T18:55:22.319Z,11.70
2022-08-05T18:57:53.492Z,10.70
2022-08-05T19:00:28.591Z,10.80
2022-08-05T19:03:03.860Z,10.70
2022-08-05T19:06:12.425Z,12.10
2022-08-05T19:08:30.285Z,10.90
2022-08-05T19:11:04.842Z,10.10
2022-08-05T19:13:36.689Z,11.20
2022-08-05T19:16:25.198Z,13.90
2022-08-05T19:18:56.775Z,9.50
2022-08-05T19:21:27.373Z,10.60
2022-08-05T19:24:05.510Z,11.80
2022-08-05T19:26:44.039Z,10.00
2022-08-05T19:29:26.817Z,13.80
2022-08-05T19:32:11.254Z,10.50
2022-08-05T19:34:40.676Z,10.40
2022-08-05T19:37:10.858Z,11.30
2022-08-05T19:39:45.582Z,12.60
2022-08-05T19:42:35.875Z,10.10
2022-08-05T19:45:06.460Z,16.50
2022-08-05T19:47:37.500Z,15.40
2022-08-05T19:50:11.911Z,9.30
2022-08-05T19:52:41.039Z,9.80
2022-08-05T19:56:14.451Z,8.20
2022-08-05T19:58:19.592Z,15.60
2022-08-05T20:00:46.741Z,11.10
2022-08-05T20:03:15.441Z,10.10
2022-08-05T20:05:51.384Z,8.40
2022-08-05T20:08:20.452Z,15.80
2022-08-05T20:10:54.023Z,8.10
2022-08-05T20:13:30.116Z,9.50
2022-08-05T20:16:10.977Z,9.10
2022-08-05T20:18:39.719Z,8.40
2022-08-05T20:21:08.912Z,9.30
2022-08-05T20:23:51.345Z,7.50
2022-08-05T20:26:24.833Z,10.90
2022-08-05T20:28:56.915Z,12.00
2022-08-05T20:31:37.299Z,12.00
2022-08-05T20:34:16.167Z,12.60
2022-08-05T20:36:45.573Z,9.90
2022-08-05T20:39:16.655Z,12.60
2022-08-05T20:41:47.908Z,9.70
2022-08-05T20:44:29.498Z,12.10
2022-08-05T20:47:05.253Z,11.90
2022-08-05T20:49:38.127Z,12.10
2022-08-05T20:52:08.959Z,10.10
2022-08-05T20:54:42.805Z,10.90
2022-08-05T20:57:14.341Z,8.60
2022-08-05T21:00:10.650Z,12.80
2022-08-05T21:02:31.108Z,12.50
2022-08-05T21:04:59.317Z,9.70
2022-08-05T21:07:45.607Z,11.30
2022-08-05T21:10:18.978Z,8.40
2022-08-05T21:13:08.897Z,11.20
2022-08-05T21:15:37.241Z,9.20
2022-08-05T21:18:05.422Z,8.60
2022-08-05T21:20:34.199Z,13.80
2022-08-05T21:23:02.896Z,9.30
2022-08-05T21:25:33.648Z,9.40
2022-08-05T21:28:03.523Z,9.30
2022-08-05T21:30:31.922Z,10.50
2022-08-05T21:33:01.822Z,12.10
2022-08-05T21:35:55.507Z,8.20
2022-08-05T21:38:19.382Z,8.40
2022-08-05T21:40:47.560Z,8.80
2022-08-05T21:43:17.737Z,11.20
2022-08-05T21:45:57.972Z,12.90
2022-08-05T21:48:29.278Z,10.10
2022-08-05T21:50:59.932Z,9.20
2022-08-05T21:53:28.190Z,7.90
2022-08-05T21:56:16.161Z,9.10
2022-08-05T21:58:57.042Z,7.60
2022-08-05T22:01:26.579Z,10.00
2022-08-05T22:03:55.202Z,8.00
2022-08-05T22:06:35.332Z,12.00
2022-08-05T22:09:14.754Z,8.10
2022-08-05T22:11:47.250Z,8.30
2022-08-05T22:14:35.340Z,10.90
2022-08-05T22:17:06.700Z,9.70
2022-08-05T22:20:00.644Z,10.60
2022-08-05T22:22:28.038Z,8.20
2022-08-05T22:25:21.190Z,10.50
2022-08-05T22:28:11.098Z,11.30
2022-08-05T22:30:55.834Z,7.40
2022-08-05T22:33:57.195Z,10.00
2022-08-05T22:36:17.840Z,9.00
2022-08-05T22:38:48.149Z,9.10
2022-08-05T22:42:05.522Z,12.10
2022-08-05T22:44:09.110Z,9.60
2022-08-05T22:46:40.206Z,6.60
2022-08-05T22:49:12.138Z,8.10
2022-08-05T22:52:05.350Z,9.10
2022-08-05T22:54:37.133Z,8.00
2022-08-05T22:57:07.230Z,9.00
2022-08-05T22:59:48.545Z,9.50
2022-08-05T23:02:29.226Z,7.80
2022-08-05T23:05:01.529Z,7.30
2022-08-05T23:07:45.364Z,10.10
2022-08-05T23:10:19.860Z,7.40
2022-08-05T23:12:51.220Z,7.70
2022-08-05T23:15:20.055Z,7.10
2022-08-05T23:18:00.433Z,7.50
2022-08-05T23:20:32.194Z,8.10
2022-08-05T23:23:05.991Z,12.00
2022-08-05T23:25:51.635Z,5.70
2022-08-05T23:28:27.736Z,9.20
2022-08-05T23:31:16.728Z,5.90
2022-08-05T23:34:04.083Z,8.10
2022-08-05T23:36:38.686Z,8.40
2022-08-05T23:39:10.109Z,9.30
2022-08-05T23:44:17.181Z,8.30
2022-08-05T23:46:48.327Z,6.10
2022-08-05T23:49:23.599Z,5.80
2022-08-05T23:52:12.039Z,8.10
2022-08-05T23:54:46.234Z,10.10
2022-08-05T23:57:14.410Z,5.90
